Time;durP1;ratioP1;P1;durP2;ratioP2;P2;SDS_P1;SDS_P2;PMS_P1;PMS_P2;Temp;Humidity;BMP_temperature;BMP_pressure;BME280_temperature;BME280_humidity;BME280_pressure;Samples;Min_cycle;Max_cycle;Signal;HPM_P1;HPM_P2
2023/03/28 00:03:38;;;;;;;13.52;2.15;;;;;;;1.38;66.67;101190.25;10257216;28;20043;-79
2023/03/28 00:08:42;;;;;;;9.88;1.70;;;;;;;1.33;67.60;101192.19;10252009;28;20039;-79
2023/03/28 00:13:45;;;;;;;10.70;1.98;;;;;;;1.32;67.56;101191.31;10247692;28;20447;-79
2023/03/28 00:18:49;;;;;;;7.47;1.20;;;;;;;1.00;68.16;101214.28;10249228;28;20043;-79
2023/03/28 00:23:53;;;;;;;14.50;1.90;;;;;;;1.05;68.67;101200.91;10259104;28;20046;-78
2023/03/28 00:28:56;;;;;;;9.57;2.25;;;;;;;0.93;69.36;101207.41;10255369;28;20110;-79
2023/03/28 00:34:01;;;;;;;9.70;1.73;;;;;;;0.66;70.59;101214.34;10244151;28;20495;-78
2023/03/28 00:39:06;;;;;;;8.77;1.77;;;;;;;0.61;70.38;101218.88;10276979;28;20047;-77
2023/03/28 00:44:41;;;;;;;10.68;1.73;;;;;;;0.89;69.65;101220.78;10285899;28;20035;-79
2023/03/28 00:49:49;;;;;;;9.57;1.70;;;;;;;0.52;71.23;101224.38;10261870;28;20102;-79
2023/03/28 00:54:56;;;;;;;13.52;2.35;;;;;;;0.96;69.92;101224.97;10246270;28;20044;-80
2023/03/28 00:59:59;;;;;;;10.77;2.67;;;;;;;1.15;69.18;101220.03;10255174;28;20141;-81
2023/03/28 01:05:04;;;;;;;9.75;1.63;;;;;;;1.03;69.20;101229.19;10261261;28;20125;-79
2023/03/28 01:10:09;;;;;;;17.85;2.70;;;;;;;0.93;70.55;101230.34;10259252;28;20050;-78
2023/03/28 01:15:12;;;;;;;12.30;2.10;;;;;;;1.12;69.53;101228.06;10258091;28;20051;-77
2023/03/28 01:20:39;;;;;;;10.57;2.85;;;;;;;0.95;69.92;101237.34;10247638;28;20055;-77
2023/03/28 01:26:11;;;;;;;9.88;2.00;;;;;;;0.75;70.71;101240.53;10258387;28;20044;-78
2023/03/28 01:31:35;;;;;;;13.43;1.80;;;;;;;0.89;71.06;101258.69;10262099;28;20062;-78
2023/03/28 01:37:34;;;;;;;13.70;2.45;;;;;;;0.69;71.03;101245.13;10268513;28;20406;-78
2023/03/28 01:42:44;;;;;;;13.25;2.72;;;;;;;1.10;69.69;101249.28;10282243;28;20135;-77
2023/03/28 01:47:53;;;;;;;12.93;2.22;;;;;;;1.05;70.00;101249.41;10287938;28;20074;-78
2023/03/28 01:53:07;;;;;;;6.65;1.67;;;;;;;0.88;69.68;101250.78;10281702;28;20062;-78
2023/03/28 01:58:15;;;;;;;17.73;2.28;;;;;;;0.63;70.87;101250.56;10276347;28;20105;-79
2023/03/28 02:03:30;;;;;;;17.02;2.28;;;;;;;0.61;70.87;101243.53;10260943;28;20052;-79
2023/03/28 02:08:41;;;;;;;13.75;2.60;;;;;;;0.50;71.02;101239.44;10243594;29;20098;-79
2023/03/28 02:13:57;;;;;;;12.05;2.55;;;;;;;0.61;70.97;101243.53;10255792;28;20049;-79
2023/03/28 02:19:23;;;;;;;19.77;2.83;;;;;;;0.44;71.33;101251.03;10247209;28;20079;-78
2023/03/28 02:24:50;;;;;;;15.05;2.70;;;;;;;0.28;71.81;101252.34;10269713;29;20077;-78
2023/03/28 02:30:12;;;;;;;11.85;1.83;;;;;;;0.35;71.88;101245.97;10272607;29;20040;-80
2023/03/28 02:35:29;;;;;;;14.70;2.00;;;;;;;0.10;71.85;101235.13;10264166;28;20107;-78
2023/03/28 02:40:47;;;;;;;11.32;2.30;;;;;;;0.41;71.01;101243.16;10253327;28;20051;-79
2023/03/28 02:46:12;;;;;;;15.05;2.10;;;;;;;0.26;70.93;101233.84;10252314;28;20066;-79
2023/03/28 02:51:28;;;;;;;12.10;2.15;;;;;;;0.74;70.40;101238.81;10252988;28;20060;-79
2023/03/28 02:56:43;;;;;;;7.88;1.40;;;;;;;0.61;70.46;101247.97;10278795;28;20070;-78
2023/03/28 03:01:57;;;;;;;19.83;2.53;;;;;;;0.86;69.59;101249.97;10283821;28;20052;-79
2023/03/28 03:07:01;;;;;;;8.48;2.15;;;;;;;0.74;70.69;101249.38;10253034;28;20094;-79
2023/03/28 03:12:08;;;;;;;12.18;2.03;;;;;;;0.65;70.32;101249.59;10256247;28;20043;-80
2023/03/28 03:17:11;;;;;;;7.47;2.42;;;;;;;0.98;68.78;101247.84;10268485;28;20039;-79
2023/03/28 03:22:14;;;;;;;7.90;2.25;;;;;;;0.52;70.23;101249.06;10260920;28;20046;-79
2023/03/28 03:27:26;;;;;;;15.52;2.15;;;;;;;0.84;69.28;101245.56;10246420;28;20047;-79
2023/03/28 03:32:30;;;;;;;16.02;2.65;;;;;;;0.61;69.61;101246.19;10250351;28;20054;-78
2023/03/28 03:37:38;;;;;;;4.70;1.10;;;;;;;0.24;71.90;101250.66;10243616;28;20476;-78
2023/03/28 03:42:42;;;;;;;12.50;1.77;;;;;;;0.33;70.16;101247.78;10245706;29;20098;-78
2023/03/28 03:47:45;;;;;;;13.63;2.00;;;;;;;0.29;70.79;101252.28;10252077;28;20036;-79
2023/03/28 03:52:48;;;;;;;11.52;1.80;;;;;;;0.54;70.25;101249.88;10257281;28;20517;-79
2023/03/28 03:57:58;;;;;;;18.10;2.22;;;;;;;0.38;70.42;101253.81;10249440;28;20407;-79
2023/03/28 04:03:02;;;;;;;10.48;2.13;;;;;;;0.58;70.16;101256.84;10250265;28;20043;-79
2023/03/28 04:08:06;;;;;;;11.10;1.60;;;;;;;0.67;69.27;101262.81;10258525;28;20106;-79
2023/03/28 04:13:14;;;;;;;17.65;2.22;;;;;;;0.42;69.67;101265.22;10250952;28;20067;-79
2023/03/28 04:18:19;;;;;;;13.75;1.70;;;;;;;0.54;70.20;101262.25;10248084;28;20498;-79
2023/03/28 04:23:24;;;;;;;11.77;2.17;;;;;;;0.37;69.91;101268.81;10246803;28;20107;-78
2023/03/28 04:28:30;;;;;;;9.70;1.58;;;;;;;0.19;70.69;101281.59;10260740;28;20043;-79
2023/03/28 04:33:38;;;;;;;12.77;2.10;;;;;;;0.12;70.94;101296.75;10262558;28;20052;-79
2023/03/28 04:38:44;;;;;;;12.30;2.80;;;;;;;-0.02;71.96;101298.84;10257718;28;20047;-79
2023/03/28 04:44:07;;;;;;;15.73;1.73;;;;;;;0.16;72.08;101306.31;10261714;28;20051;-79
2023/03/28 04:49:18;;;;;;;10.77;2.53;;;;;;;0.17;72.19;101302.78;10246091;28;20043;-79
2023/03/28 04:54:21;;;;;;;11.68;2.40;;;;;;;0.07;72.51;101310.06;10254237;28;20048;-79
2023/03/28 04:59:44;;;;;;;10.30;2.35;;;;;;;0.14;72.65;101313.44;10263937;28;20060;-79
2023/03/28 05:04:56;;;;;;;13.48;2.20;;;;;;;-0.06;73.66;101309.44;10262895;28;20405;-79
2023/03/28 05:09:59;;;;;;;7.40;1.35;;;;;;;-0.15;74.10;101329.94;10245033;28;20043;-79
2023/03/28 05:15:12;;;;;;;18.23;2.85;;;;;;;-0.14;74.24;101337.84;10281999;28;20059;-79
2023/03/28 05:20:47;;;;;;;16.35;2.17;;;;;;;0.06;73.72;101336.53;10255788;28;20087;-79
2023/03/28 05:25:51;;;;;;;9.57;1.75;;;;;;;-0.39;74.30;101355.94;10257522;28;20039;-79
2023/03/28 05:30:57;;;;;;;10.15;1.67;;;;;;;-0.50;75.33;101360.56;10266170;28;20042;-79
2023/03/28 05:36:03;;;;;;;12.32;2.60;;;;;;;-0.41;75.71;101359.50;10252315;28;20039;-77
2023/03/28 05:41:08;;;;;;;14.40;2.85;;;;;;;-0.58;75.57;101363.34;10271247;28;20074;-77
2023/03/28 05:46:12;;;;;;;8.45;3.08;;;;;;;-0.07;74.58;101357.91;10269227;28;20341;-79
2023/03/28 05:51:16;;;;;;;10.45;2.42;;;;;;;-0.10;74.31;101371.19;10254524;29;20050;-80
2023/03/28 05:56:19;;;;;;;9.43;2.25;;;;;;;-0.14;74.43;101379.19;10251791;28;20078;-80
2023/03/28 06:01:27;;;;;;;10.27;2.25;;;;;;;-0.20;74.22;101389.91;10259968;28;20044;-79
2023/03/28 06:06:40;;;;;;;11.15;2.75;;;;;;;-0.08;74.68;101394.94;10255392;28;20466;-80
2023/03/28 06:11:44;;;;;;;8.57;2.63;;;;;;;0.18;73.46;101383.81;10259122;28;20047;-79
2023/03/28 06:16:48;;;;;;;12.95;2.85;;;;;;;0.32;73.35;101380.84;10245031;28;20109;-79
2023/03/28 06:21:52;;;;;;;9.70;2.70;;;;;;;0.35;73.40;101388.72;10256600;28;20495;-79
2023/03/28 06:26:55;;;;;;;18.50;2.75;;;;;;;0.02;73.30;101412.31;10258848;28;20035;-80
2023/03/28 06:32:01;;;;;;;11.55;2.95;;;;;;;0.56;72.88;101408.50;10241059;28;20047;-79
2023/03/28 06:37:04;;;;;;;16.55;3.03;;;;;;;0.23;74.33;101410.13;10262492;28;20047;-79
2023/03/28 06:42:26;;;;;;;16.23;3.10;;;;;;;0.43;72.80;101401.75;10249277;28;20052;-80
2023/03/28 06:47:36;;;;;;;7.93;2.30;;;;;;;0.65;72.72;101407.41;10255437;28;20059;-80
2023/03/28 06:52:40;;;;;;;10.98;2.90;;;;;;;0.94;72.01;101412.88;10252138;28;20071;-79
2023/03/28 06:57:44;;;;;;;15.65;3.45;;;;;;;1.04;72.04;101408.22;10248589;28;20040;-79
2023/03/28 07:02:56;;;;;;;10.13;1.83;;;;;;;1.32;71.91;101410.16;10248594;28;20094;-79
2023/03/28 07:07:59;;;;;;;9.00;2.30;;;;;;;2.07;69.36;101408.94;10252126;28;20039;-78
2023/03/28 07:13:02;;;;;;;17.00;2.33;;;;;;;1.62;69.64;101422.59;10278101;28;20061;-79
2023/03/28 07:18:09;;;;;;;11.45;2.25;;;;;;;2.34;67.82;101414.34;10290418;28;20046;-78
2023/03/28 07:23:12;;;;;;;11.07;2.42;;;;;;;3.20;66.60;101420.44;10248685;28;20059;-79
2023/03/28 07:28:15;;;;;;;11.00;1.83;;;;;;;3.16;65.72;101426.78;10252148;28;20046;-78
2023/03/28 07:33:19;;;;;;;8.85;2.50;;;;;;;3.30;65.81;101425.47;10283860;28;20047;-79
2023/03/28 07:38:35;;;;;;;10.35;1.83;;;;;;;3.87;63.80;101427.00;10252382;28;20035;-78
2023/03/28 07:43:40;;;;;;;14.55;2.25;;;;;;;4.04;63.05;101437.00;10246634;28;20047;-78
2023/03/28 07:48:45;;;;;;;13.25;2.40;;;;;;;4.11;62.77;101439.38;10253560;28;20502;-78
2023/03/28 07:53:48;;;;;;;10.70;2.30;;;;;;;4.12;60.32;101445.56;10231816;29;20059;-79
2023/03/28 07:58:51;;;;;;;6.10;1.40;;;;;;;3.72;62.12;101453.19;10254494;28;20094;-80
2023/03/28 08:03:56;;;;;;;10.10;2.00;;;;;;;3.73;62.10;101448.75;10256033;28;20039;-79
2023/03/28 08:09:09;;;;;;;19.90;2.92;;;;;;;4.24;61.68;101449.56;10246110;29;20043;-77
2023/03/28 08:14:18;;;;;;;8.20;1.48;;;;;;;4.76;59.26;101458.19;10257769;28;20049;-78
2023/03/28 08:19:22;;;;;;;15.52;1.98;;;;;;;5.29;57.47;101444.47;10265090;28;20565;-79
2023/03/28 08:24:44;;;;;;;12.93;2.85;;;;;;;4.91;57.10;101454.03;10253848;28;20467;-78
2023/03/28 08:29:50;;;;;;;12.95;2.38;;;;;;;5.63;57.32;101459.91;10259515;28;20054;-79
2023/03/28 08:34:56;;;;;;;11.63;2.00;;;;;;;4.86;58.93;101467.53;10256707;28;20047;-78
2023/03/28 08:40:05;;;;;;;14.95;2.47;;;;;;;5.36;56.70;101469.94;10258178;28;20039;-79
2023/03/28 08:45:28;;;;;;;12.18;1.98;;;;;;;4.89;57.24;101462.09;10254181;29;20039;-79
2023/03/28 08:50:36;;;;;;;8.95;2.05;;;;;;;5.17;55.90;101469.00;10259198;28;20605;-79
2023/03/28 08:55:41;;;;;;;7.68;2.00;;;;;;;6.34;56.89;101462.09;10257744;28;20499;-79
2023/03/28 09:00:45;;;;;;;8.95;1.50;;;;;;;6.07;53.91;101469.56;10266899;28;20058;-79
2023/03/28 09:05:53;;;;;;;8.75;2.80;;;;;;;6.08;53.97;101464.13;10297366;28;20047;-80
2023/03/28 09:11:04;;;;;;;9.98;2.17;;;;;;;6.22;55.33;101460.84;10263162;28;20430;-79
2023/03/28 09:16:23;;;;;;;12.93;2.83;;;;;;;6.34;53.91;101459.44;10262983;28;20395;-80
2023/03/28 09:21:55;;;;;;;11.43;1.80;;;;;;;6.42;53.76;101453.72;10251059;28;20052;-80
2023/03/28 09:27:25;;;;;;;9.85;2.00;;;;;;;5.69;56.50;101453.44;10256776;28;20043;-79
2023/03/28 09:32:36;;;;;;;11.27;1.90;;;;;;;6.44;52.85;101439.38;10253962;29;20078;-79
2023/03/28 09:37:44;;;;;;;7.93;2.30;;;;;;;7.68;50.35;101445.78;10263113;28;20050;-79
2023/03/28 09:43:01;;;;;;;8.05;1.17;;;;;;;6.60;49.78;101461.72;10265051;28;20047;-79
2023/03/28 09:48:19;;;;;;;13.15;2.15;;;;;;;5.89;52.52;101453.41;10265744;28;20057;-78
2023/03/28 09:53:26;;;;;;;12.90;2.10;;;;;;;6.43;52.07;101456.31;10286205;28;20047;-79
2023/03/28 09:58:29;;;;;;;8.57;1.27;;;;;;;6.84;49.08;101457.03;10248709;28;20047;-79
2023/03/28 10:03:53;;;;;;;5.18;1.35;;;;;;;6.22;49.23;101449.31;10257030;28;20047;-79
2023/03/28 10:09:15;;;;;;;5.15;1.05;;;;;;;6.81;45.88;101432.28;10257253;28;20055;-80
2023/03/28 10:14:32;;;;;;;7.13;1.30;;;;;;;7.73;43.86;101444.59;10272029;28;20058;-80
2023/03/28 10:19:39;;;;;;;7.53;1.20;;;;;;;7.41;45.26;101442.69;10259834;28;20048;-79
2023/03/28 10:24:53;;;;;;;5.32;1.52;;;;;;;5.86;50.22;101448.22;10246980;28;20439;-80
2023/03/28 10:29:58;;;;;;;7.93;1.40;;;;;;;5.81;49.04;101444.91;10252901;28;20043;-79
2023/03/28 10:35:10;;;;;;;4.47;1.63;;;;;;;6.21;49.22;101437.78;10250233;28;20055;-79
2023/03/28 10:40:29;;;;;;;9.00;2.15;;;;;;;6.37;49.24;101436.13;10253767;28;20039;-79
2023/03/28 10:46:03;;;;;;;9.13;1.80;;;;;;;6.66;48.24;101436.53;10246181;29;20474;-79
2023/03/28 10:51:24;;;;;;;12.38;1.90;;;;;;;6.14;50.16;101439.88;10250551;28;20058;-79
2023/03/28 10:56:33;;;;;;;18.45;1.58;;;;;;;5.79;50.23;101441.47;10253042;28;20043;-79
2023/03/28 11:01:50;;;;;;;5.88;1.80;;;;;;;5.75;51.42;101437.19;10261631;28;20094;-78
2023/03/28 11:07:03;;;;;;;7.00;2.10;;;;;;;6.17;50.96;101430.84;10256308;28;20098;-79
2023/03/28 11:12:43;;;;;;;11.52;2.35;;;;;;;5.90;50.88;101432.97;10245458;28;20090;-79
2023/03/28 11:18:13;;;;;;;10.68;1.20;;;;;;;5.70;51.28;101425.84;10264168;28;20059;-79
2023/03/28 11:23:30;;;;;;;8.25;1.40;;;;;;;6.62;49.62;101419.81;10239694;28;20091;-79
2023/03/28 11:29:17;;;;;;;11.20;1.65;;;;;;;6.23;48.47;101433.25;10200309;28;20054;-78
2023/03/28 11:34:28;;;;;;;4.90;1.02;;;;;;;7.23;46.54;101423.09;10243705;28;20047;-78
2023/03/28 11:39:41;;;;;;;4.13;1.20;;;;;;;8.15;42.20;101404.91;10249070;28;20043;-79
2023/03/28 11:44:58;;;;;;;7.00;1.20;;;;;;;6.97;44.50;101419.94;10241851;28;20551;-78
2023/03/28 11:50:07;;;;;;;4.75;1.88;;;;;;;6.60;45.99;101402.13;10248815;28;20051;-79
2023/03/28 11:55:36;;;;;;;5.72;1.30;;;;;;;6.81;46.10;101394.88;10259037;28;20047;-79
2023/03/28 12:01:02;;;;;;;8.88;1.60;;;;;;;6.33;45.37;101388.28;10242694;28;20054;-79
2023/03/28 12:06:12;;;;;;;7.60;1.40;;;;;;;7.10;45.01;101374.75;10261529;23;20521;-76
2023/03/28 12:11:22;;;;;;;4.43;1.10;;;;;;;6.54;45.68;101373.94;10212221;29;20548;-76
2023/03/28 12:16:46;;;;;;;7.35;1.60;;;;;;;7.13;45.72;101369.28;10180201;28;20052;-76
2023/03/28 12:21:54;;;;;;;4.32;1.25;;;;;;;7.82;43.48;101362.97;10161557;29;20045;-76
2023/03/28 12:27:16;;;;;;;4.20;1.42;;;;;;;8.14;42.70;101347.81;10165178;29;20036;-76
2023/03/28 12:32:42;;;;;;;9.00;1.77;;;;;;;8.22;41.33;101350.06;10149703;29;20250;-76
2023/03/28 12:37:59;;;;;;;7.00;1.45;;;;;;;8.90;39.92;101322.97;10169808;29;20049;-75
2023/03/28 12:43:05;;;;;;;6.20;1.73;;;;;;;8.50;41.70;101325.31;10160028;29;20128;-76
2023/03/28 12:48:15;;;;;;;5.68;1.52;;;;;;;8.60;42.42;101304.22;10160726;29;20050;-76
2023/03/28 12:53:20;;;;;;;7.10;1.73;;;;;;;10.65;36.92;101292.34;10148028;29;20053;-76
2023/03/28 12:58:27;;;;;;;7.32;1.60;;;;;;;10.85;37.25;101294.53;10177646;29;20044;-76
2023/03/28 13:03:45;;;;;;;;;;;;;;;10.03;39.82;101292.81;10159477;29;20494;-76
2023/03/28 13:09:14;;;;;;;1.67;1.13;;;;;;;9.40;39.93;101292.25;10168593;29;19922;-77
2023/03/28 13:14:33;;;;;;;5.22;2.22;;;;;;;9.76;39.30;101282.84;10172826;29;20044;-76
2023/03/28 13:19:47;;;;;;;8.88;2.25;;;;;;;8.09;41.30;101282.09;10162876;29;20044;-76
2023/03/28 13:24:50;;;;;;;5.40;2.05;;;;;;;8.72;41.18;101268.69;10158498;29;20044;-76
2023/03/28 13:30:02;;;;;;;9.95;2.28;;;;;;;8.76;41.64;101266.69;10159031;29;20044;-76
2023/03/28 13:35:07;;;;;;;12.38;2.25;;;;;;;9.26;40.73;101263.59;10152043;29;20078;-76
2023/03/28 13:40:41;;;;;;;8.80;3.17;;;;;;;8.31;41.15;101269.25;10160022;29;20201;-77
2023/03/28 13:45:43;;;;;;;9.10;3.05;;;;;;;8.60;41.39;101250.66;10167854;29;20048;-77
2023/03/28 13:50:49;;;;;;;7.28;3.13;;;;;;;8.76;40.71;101255.97;10150946;29;20044;-76
2023/03/28 13:56:07;;;;;;;7.43;2.85;;;;;;;8.08;42.57;101238.44;10152430;29;20044;-76
2023/03/28 14:01:16;;;;;;;6.03;2.28;;;;;;;10.32;38.52;101242.59;10149357;29;20071;-77
2023/03/28 14:06:23;;;;;;;6.18;2.22;;;;;;;9.72;38.69;101233.03;10152177;29;20051;-77
2023/03/28 14:11:30;;;;;;;5.22;2.22;;;;;;;10.25;37.74;101215.28;10162047;29;20040;-76
2023/03/28 14:16:34;;;;;;;10.25;2.10;;;;;;;8.94;39.20;101216.47;10151347;29;20088;-78
2023/03/28 14:21:38;;;;;;;14.25;2.30;;;;;;;8.87;39.66;101197.22;10166691;29;20506;-78
2023/03/28 14:26:41;;;;;;;6.28;2.17;;;;;;;8.65;40.33;101189.63;10155306;29;20120;-78
2023/03/28 14:31:45;;;;;;;8.52;2.47;;;;;;;8.12;41.07;101173.09;10156434;29;20100;-78
2023/03/28 14:36:58;;;;;;;5.75;2.00;;;;;;;9.60;39.70;101162.25;10160576;29;20611;-78
2023/03/28 14:42:04;;;;;;;10.90;2.40;;;;;;;9.49;39.34;101164.78;10164273;29;20139;-77
2023/03/28 14:47:08;;;;;;;6.85;2.47;;;;;;;10.02;39.01;101148.84;10158481;29;20464;-76
2023/03/28 14:52:15;;;;;;;10.95;2.20;;;;;;;9.84;38.85;101143.69;10149529;29;20068;-76
2023/03/28 14:57:18;;;;;;;4.97;2.17;;;;;;;10.11;38.53;101146.38;10150709;29;20032;-76
2023/03/28 15:02:26;;;;;;;6.47;1.98;;;;;;;10.25;37.41;101139.22;10154357;29;20140;-77
2023/03/28 15:07:34;;;;;;;14.18;2.30;;;;;;;10.09;38.41;101134.03;10157034;29;20032;-77
2023/03/28 15:12:45;;;;;;;8.43;2.05;;;;;;;9.61;38.37;101122.88;10147627;29;20092;-77
2023/03/28 15:17:50;;;;;;;5.70;1.48;;;;;;;10.21;38.26;101117.13;10154588;29;20468;-77
2023/03/28 15:22:56;;;;;;;2.53;1.30;;;;;;;8.85;39.76;101118.75;10149799;29;20079;-76
2023/03/28 15:28:02;;;;;;;4.82;1.85;;;;;;;9.11;40.34;101103.72;10151030;29;20068;-77
2023/03/28 15:33:06;;;;;;;6.63;1.73;;;;;;;9.46;39.50;101082.69;10158745;29;20064;-77
2023/03/28 15:38:17;;;;;;;8.27;1.95;;;;;;;8.59;41.18;101082.88;10140641;29;20583;-77
2023/03/28 15:43:37;;;;;;;5.32;2.30;;;;;;;8.41;42.44;101076.78;10157146;29;20044;-76
2023/03/28 15:48:41;;;;;;;8.95;2.25;;;;;;;8.98;41.77;101076.84;10146082;29;20408;-76
2023/03/28 15:53:48;;;;;;;9.25;2.00;;;;;;;8.64;41.87;101063.84;10167874;29;20191;-76
2023/03/28 15:58:52;;;;;;;8.43;1.70;;;;;;;8.80;40.58;101064.59;10153344;29;20044;-76
2023/03/28 16:04:20;;;;;;;4.43;2.00;;;;;;;8.97;39.74;101061.72;10143486;29;20054;-76
2023/03/28 16:09:25;;;;;;;6.80;1.52;;;;;;;8.98;39.76;101055.41;10154515;29;20080;-77
2023/03/28 16:14:28;;;;;;;2.35;1.65;;;;;;;8.65;39.46;101044.16;10145010;29;20071;-77
2023/03/28 16:19:50;;;;;;;4.10;1.57;;;;;;;8.00;40.58;101039.16;10171011;29;20508;-77
2023/03/28 16:24:55;;;;;;;4.88;1.40;;;;;;;7.89;41.26;101042.47;10171525;29;20103;-77
2023/03/28 16:29:58;;;;;;;6.10;2.00;;;;;;;7.89;41.84;101021.91;10168513;29;20475;-78
2023/03/28 16:35:00;;;;;;;4.50;1.73;;;;;;;7.98;42.00;101023.22;10154610;29;20071;-76
2023/03/28 16:40:06;;;;;;;4.05;1.65;;;;;;;7.81;41.87;101018.84;10158404;29;20139;-76
2023/03/28 16:45:11;;;;;;;7.47;2.42;;;;;;;7.67;42.26;101014.31;10154606;29;20044;-76
2023/03/28 16:50:15;;;;;;;6.70;1.92;;;;;;;7.64;42.62;100994.91;10156596;29;20100;-76
2023/03/28 16:55:19;;;;;;;7.45;1.77;;;;;;;7.73;42.71;100984.56;10160940;29;20464;-76
2023/03/28 17:00:23;;;;;;;4.90;1.95;;;;;;;7.85;43.04;100982.94;10151749;29;20575;-76
2023/03/28 17:05:26;;;;;;;3.78;1.70;;;;;;;8.06;43.16;100979.91;10161827;29;20092;-76
2023/03/28 17:10:30;;;;;;;5.28;1.70;;;;;;;7.94;42.65;100969.00;10148511;29;20032;-76
2023/03/28 17:15:34;;;;;;;8.30;1.92;;;;;;;7.86;43.27;100965.94;10156117;29;20075;-76
2023/03/28 17:20:37;;;;;;;5.55;1.88;;;;;;;7.67;43.59;100955.47;10172490;29;20044;-76
2023/03/28 17:25:41;;;;;;;9.73;2.88;;;;;;;7.58;43.87;100960.53;10144836;29;20583;-76
2023/03/28 17:30:56;;;;;;;8.10;2.53;;;;;;;7.54;44.30;100957.16;10159226;29;20079;-77
2023/03/28 17:35:59;;;;;;;3.75;1.70;;;;;;;7.41;44.75;100957.03;10150557;29;20045;-77
2023/03/28 17:41:04;;;;;;;3.53;1.63;;;;;;;7.40;44.60;100962.47;10157907;29;20048;-77
2023/03/28 17:46:07;;;;;;;9.27;2.10;;;;;;;7.40;44.59;100951.78;10179249;29;20052;-77
2023/03/28 17:51:11;;;;;;;4.45;2.00;;;;;;;7.39;45.08;100950.06;10158440;29;20041;-77
2023/03/28 17:56:16;;;;;;;5.55;1.80;;;;;;;7.35;44.91;100952.06;10152214;29;20472;-77
2023/03/28 18:01:19;;;;;;;6.72;2.53;;;;;;;7.34;45.21;100949.47;10158351;29;20127;-77
2023/03/28 18:06:22;;;;;;;5.55;1.88;;;;;;;7.32;45.21;100948.69;10151803;29;20056;-77
2023/03/28 18:11:26;;;;;;;17.40;2.95;;;;;;;7.32;45.08;100938.84;10154585;29;20036;-77
2023/03/28 18:16:29;;;;;;;7.72;2.45;;;;;;;7.27;45.10;100940.97;10160488;29;20511;-77
2023/03/28 18:21:32;;;;;;;9.77;4.00;;;;;;;7.22;45.37;100924.31;10145944;29;20046;-76
2023/03/28 18:26:37;;;;;;;12.07;3.35;;;;;;;7.15;46.33;100925.63;10162517;29;20099;-77
2023/03/28 18:31:41;;;;;;;11.25;5.40;;;;;;;7.09;46.89;100929.50;10151890;29;20079;-77
2023/03/28 18:36:44;;;;;;;15.98;7.45;;;;;;;7.01;46.90;100924.59;10183768;29;20056;-77
2023/03/28 18:41:48;;;;;;;11.35;6.20;;;;;;;6.99;46.74;100917.63;10155096;29;20089;-77
2023/03/28 18:46:54;;;;;;;14.48;6.75;;;;;;;6.99;47.03;100918.50;10145804;29;20076;-77
2023/03/28 18:52:03;;;;;;;12.20;6.13;;;;;;;6.91;46.98;100912.75;10158165;29;20513;-77
2023/03/28 18:57:07;;;;;;;11.90;5.65;;;;;;;6.85;47.31;100905.03;10153463;29;20416;-77
2023/03/28 19:02:12;;;;;;;16.15;5.15;;;;;;;6.82;47.15;100903.41;10156267;29;20131;-77
2023/03/28 19:07:16;;;;;;;10.15;4.75;;;;;;;6.74;47.25;100892.28;10155972;29;20049;-77
2023/03/28 19:12:20;;;;;;;15.90;4.93;;;;;;;6.63;47.68;100892.03;10154779;29;20090;-77
2023/03/28 19:17:23;;;;;;;9.00;4.55;;;;;;;6.60;47.90;100878.88;10150250;29;20424;-77
2023/03/28 19:22:26;;;;;;;5.03;3.13;;;;;;;6.55;47.46;100889.78;10157906;29;20072;-77
2023/03/28 19:27:30;;;;;;;6.10;3.42;;;;;;;6.52;47.08;100889.97;10153285;29;20107;-78
2023/03/28 19:32:33;;;;;;;7.53;3.63;;;;;;;6.63;46.93;100878.69;10154631;29;20515;-76
2023/03/28 19:37:36;;;;;;;6.68;2.72;;;;;;;6.64;46.70;100869.75;10156028;29;20044;-76
2023/03/28 19:42:40;;;;;;;7.10;3.35;;;;;;;6.65;46.33;100866.13;10139709;29;20412;-76
2023/03/28 19:47:43;;;;;;;4.65;2.80;;;;;;;6.61;45.71;100852.09;10154402;29;20080;-76
2023/03/28 19:52:46;;;;;;;6.80;2.08;;;;;;;6.60;44.66;100846.84;10149569;29;20041;-76
2023/03/28 19:57:50;;;;;;;6.43;2.17;;;;;;;6.64;44.13;100843.06;10161925;29;20106;-77
2023/03/28 20:02:53;;;;;;;7.68;2.03;;;;;;;6.69;43.00;100841.00;10160921;29;20127;-76
2023/03/28 20:07:56;;;;;;;3.60;2.03;;;;;;;6.74;42.28;100828.22;10147691;29;20074;-76
2023/03/28 20:13:00;;;;;;;4.10;1.67;;;;;;;6.77;42.85;100825.34;10173639;29;20067;-76
2023/03/28 20:18:03;;;;;;;5.53;2.03;;;;;;;6.72;42.96;100823.91;10157357;29;20574;-76
2023/03/28 20:23:07;;;;;;;4.38;2.10;;;;;;;6.65;43.20;100817.22;10159912;29;20036;-76
2023/03/28 20:28:11;;;;;;;7.68;1.92;;;;;;;6.63;43.20;100817.28;10154675;29;20052;-76
2023/03/28 20:33:14;;;;;;;6.68;2.30;;;;;;;6.63;43.73;100806.63;10160242;29;20071;-76
2023/03/28 20:38:17;;;;;;;11.05;4.18;;;;;;;6.54;44.26;100802.66;10153140;29;20067;-76
2023/03/28 20:43:25;;;;;;;8.00;2.92;;;;;;;6.45;44.56;100811.22;10158989;29;20127;-76
2023/03/28 20:48:35;;;;;;;3.13;2.28;;;;;;;6.42;44.66;100803.38;10163206;29;20519;-76
2023/03/28 20:53:38;;;;;;;9.75;2.30;;;;;;;6.45;44.68;100797.03;10157865;29;20040;-76
2023/03/28 20:58:42;;;;;;;9.02;2.05;;;;;;;6.37;44.88;100795.63;10164753;29;20124;-76
2023/03/28 21:03:48;;;;;;;4.53;2.08;;;;;;;6.41;45.09;100782.97;10146179;29;20076;-76
2023/03/28 21:08:53;;;;;;;4.05;1.90;;;;;;;6.44;45.37;100779.25;10163209;29;20080;-76
2023/03/28 21:13:59;;;;;;;4.38;1.85;;;;;;;6.39;45.40;100774.22;10156670;29;20112;-76
2023/03/28 21:19:03;;;;;;;3.30;2.25;;;;;;;6.33;45.37;100767.38;10149856;29;20052;-75
2023/03/28 21:24:07;;;;;;;6.63;1.98;;;;;;;6.31;45.53;100757.78;10157955;29;20123;-76
2023/03/28 21:29:11;;;;;;;3.40;1.63;;;;;;;6.17;45.64;100761.22;10157195;29;20083;-76
2023/03/28 21:34:14;;;;;;;7.13;2.28;;;;;;;6.23;45.78;100757.34;10157873;29;20121;-76
2023/03/28 21:39:18;;;;;;;3.55;1.55;;;;;;;6.29;45.59;100762.34;10155132;29;20091;-77
2023/03/28 21:44:22;;;;;;;7.93;2.13;;;;;;;6.26;45.59;100767.84;10153294;29;20500;-77
2023/03/28 21:49:25;;;;;;;8.45;1.80;;;;;;;6.26;45.78;100770.53;10153997;29;20099;-77
2023/03/28 21:54:27;;;;;;;4.90;1.70;;;;;;;6.25;45.78;100766.97;10154687;29;20107;-76
2023/03/28 21:59:32;;;;;;;5.05;1.90;;;;;;;6.27;45.92;100758.88;10156022;29;20057;-77
2023/03/28 22:04:35;;;;;;;5.38;1.70;;;;;;;6.34;45.95;100745.13;10156663;29;20144;-76
2023/03/28 22:09:38;;;;;;;3.47;1.40;;;;;;;6.24;46.57;100756.41;10158563;29;20051;-77
2023/03/28 22:14:42;;;;;;;5.32;1.90;;;;;;;6.27;46.27;100753.56;10149902;29;20071;-76
2023/03/28 22:19:46;;;;;;;5.32;1.75;;;;;;;5.99;46.93;100752.44;10161692;29;20127;-78
2023/03/28 22:24:48;;;;;;;3.92;1.70;;;;;;;6.10;47.18;100749.19;10146068;29;20135;-77
2023/03/28 22:29:52;;;;;;;7.55;2.15;;;;;;;6.02;47.43;100748.75;10158169;29;20072;-77
2023/03/28 22:34:55;;;;;;;5.53;2.00;;;;;;;5.91;48.06;100750.22;10154568;29;20054;-78
2023/03/28 22:39:58;;;;;;;6.15;2.20;;;;;;;6.10;48.22;100744.72;10155140;29;20040;-77
2023/03/28 22:45:02;;;;;;;4.85;2.35;;;;;;;5.98;48.62;100748.06;10155546;29;20052;-76
2023/03/28 22:50:07;;;;;;;9.77;2.80;;;;;;;6.15;48.88;100757.78;10147526;29;20048;-76
2023/03/28 22:55:12;;;;;;;6.88;2.17;;;;;;;5.70;50.75;100746.06;10149359;29;20094;-76
2023/03/28 23:00:17;;;;;;;6.30;2.88;;;;;;;5.73;51.50;100743.22;10157611;29;20049;-77
2023/03/28 23:05:20;;;;;;;6.97;2.33;;;;;;;5.17;53.54;100736.50;10144082;29;20485;-76
2023/03/28 23:10:23;;;;;;;7.35;2.25;;;;;;;5.29;54.73;100735.84;10148850;29;20041;-76
2023/03/28 23:15:28;;;;;;;8.63;3.17;;;;;;;5.41;56.00;100737.00;10153434;29;20436;-76
2023/03/28 23:20:30;;;;;;;8.32;3.20;;;;;;;5.15;57.75;100763.19;10153406;29;20048;-77
2023/03/28 23:25:33;;;;;;;4.75;2.85;;;;;;;5.01;60.17;100737.28;10151102;29;20127;-76
2023/03/28 23:30:39;;;;;;;7.35;3.47;;;;;;;5.04;60.24;100733.63;10155885;29;20079;-76
2023/03/28 23:35:42;;;;;;;6.65;3.60;;;;;;;5.06;61.21;100735.25;10147166;29;20119;-77
2023/03/28 23:40:46;;;;;;;5.18;3.60;;;;;;;5.09;61.54;100728.06;10159230;29;20111;-77
2023/03/28 23:45:50;;;;;;;8.13;3.67;;;;;;;4.96;62.16;100723.31;10150500;29;20519;-77
2023/03/28 23:50:53;;;;;;;6.40;3.40;;;;;;;5.04;62.21;100717.63;10153431;29;20927;-77